Time;durP1;ratioP1;P1;durP2;ratioP2;P2;SDS_P1;SDS_P2;PMS_P1;PMS_P2;Temp;Humidity;BMP_temperature;BMP_pressure;BME280_temperature;BME280_humidity;BME280_pressure;Samples;Min_cycle;Max_cycle;Signal;HPM_P1;HPM_P2
2023/08/24 00:01:05;;;;;;;5.47;1.90;;;15.00;99.90;;;;;;6122600;23;20505;-87
2023/08/24 00:03:33;;;;;;;10.43;2.25;;;15.00;99.90;;;;;;6072959;23;20170;-87
2023/08/24 00:06:00;;;;;;;7.15;2.38;;;15.10;99.90;;;;;;6096856;23;20177;-86
2023/08/24 00:08:28;;;;;;;5.20;1.90;;;15.10;99.90;;;;;;6122623;23;20238;-87
2023/08/24 00:10:56;;;;;;;5.35;1.95;;;15.10;99.90;;;;;;6072903;23;20633;-87
2023/08/24 00:13:23;;;;;;;5.68;1.85;;;15.00;99.90;;;;;;6097187;23;20187;-88
2023/08/24 00:15:53;;;;;;;4.03;1.88;;;15.00;99.90;;;;;;6122603;23;20167;-85
2023/08/24 00:18:23;;;;;;;6.72;2.10;;;15.10;99.90;;;;;;6096769;23;20164;-87
2023/08/24 00:20:51;;;;;;;5.88;1.90;;;15.00;99.90;;;;;;6122383;23;20175;-86
2023/08/24 00:23:19;;;;;;;3.15;1.90;;;15.00;99.90;;;;;;6122245;23;20203;-88
2023/08/24 00:25:47;;;;;;;5.57;2.72;;;15.10;99.90;;;;;;6122071;23;20251;-88
2023/08/24 00:28:14;;;;;;;5.55;2.13;;;15.00;99.90;;;;;;6122609;23;20160;-86
2023/08/24 00:30:42;;;;;;;2.92;1.98;;;14.90;99.90;;;;;;6073270;23;20171;-86
2023/08/24 00:33:11;;;;;;;9.57;2.25;;;14.90;99.90;;;;;;6073022;23;20248;-87
2023/08/24 00:35:38;;;;;;;6.90;2.20;;;14.90;99.90;;;;;;6122562;23;20167;-87
2023/08/24 00:38:06;;;;;;;7.45;2.67;;;14.90;99.90;;;;;;6097248;23;20613;-88
2023/08/24 00:40:34;;;;;;;3.53;2.30;;;14.90;99.90;;;;;;6096873;23;20198;-87
2023/08/24 00:43:02;;;;;;;6.82;2.25;;;14.90;99.90;;;;;;6072814;23;20168;-86
2023/08/24 00:45:32;;;;;;;5.47;2.33;;;14.90;99.90;;;;;;6072228;23;20511;-87
2023/08/24 00:48:02;;;;;;;6.35;2.17;;;15.00;99.90;;;;;;6072630;23;20611;-86
2023/08/24 00:50:30;;;;;;;5.93;2.35;;;14.90;99.90;;;;;;6121718;23;20187;-85
2023/08/24 00:52:58;;;;;;;4.57;1.90;;;14.90;99.90;;;;;;6096194;23;20175;-87
2023/08/24 00:55:25;;;;;;;6.45;1.92;;;14.90;99.90;;;;;;6096538;23;20167;-86
2023/08/24 00:57:53;;;;;;;5.78;2.30;;;14.90;99.90;;;;;;6096361;23;20274;-87
2023/08/24 01:00:22;;;;;;;3.72;1.90;;;14.90;99.90;;;;;;6122454;23;20266;-87
2023/08/24 01:02:50;;;;;;;5.20;2.22;;;14.90;99.90;;;;;;6122312;23;20187;-84
2023/08/24 01:05:18;;;;;;;4.35;2.22;;;14.90;99.90;;;;;;6096705;23;20615;-87
2023/08/24 01:07:46;;;;;;;4.70;2.55;;;14.90;99.90;;;;;;6096133;23;20197;-86
2023/08/24 01:10:14;;;;;;;8.25;2.60;;;14.90;99.90;;;;;;6095901;23;20614;-86
2023/08/24 01:12:58;;;;;;;5.95;2.58;;;14.90;99.90;;;;;;6095987;23;20645;-85
2023/08/24 01:15:55;;;;;;;3.30;2.30;;;14.80;99.90;;;;;;6121996;23;20155;-85
2023/08/24 01:18:26;;;;;;;4.90;2.30;;;14.80;99.90;;;;;;6095691;23;20168;-87
2023/08/24 01:20:55;;;;;;;8.73;2.70;;;14.90;99.90;;;;;;6121867;23;20171;-88
2023/08/24 01:23:32;;;;;;;6.22;2.70;;;14.90;99.90;;;;;;6096042;23;20167;-87
2023/08/24 01:26:09;;;;;;;4.10;2.65;;;14.80;99.90;;;;;;6096195;23;20164;-87
2023/08/24 01:28:37;;;;;;;6.45;2.53;;;14.70;99.90;;;;;;6121908;23;20394;-87
2023/08/24 01:31:07;;;;;;;4.22;2.30;;;14.70;99.90;;;;;;6122154;23;20170;-87
2023/08/24 01:33:35;;;;;;;9.38;2.63;;;14.50;99.90;;;;;;6095681;23;20175;-85
2023/08/24 01:36:03;;;;;;;4.80;2.83;;;14.40;99.90;;;;;;6071997;23;20182;-86
2023/08/24 01:38:31;;;;;;;3.65;2.10;;;14.50;99.90;;;;;;6121932;23;20174;-87
2023/08/24 01:41:02;;;;;;;3.50;2.70;;;14.60;99.90;;;;;;6121704;23;20245;-87
2023/08/24 01:43:33;;;;;;;7.60;2.90;;;14.60;99.90;;;;;;6072249;23;20536;-88
2023/08/24 01:46:15;;;;;;;8.77;3.28;;;14.70;99.90;;;;;;6074393;23;20263;-87
2023/08/24 01:48:44;;;;;;;2.28;1.85;;;14.50;99.90;;;;;;6121639;23;20152;-86
2023/08/24 01:51:13;;;;;;;7.47;2.35;;;14.60;99.90;;;;;;6095776;23;20195;-86
2023/08/24 01:53:41;;;;;;;3.65;2.10;;;14.70;99.90;;;;;;6121878;23;20222;-85
2023/08/24 01:56:13;;;;;;;5.38;2.35;;;14.70;99.90;;;;;;6095518;23;20555;-87
2023/08/24 01:58:41;;;;;;;5.57;2.65;;;14.70;99.90;;;;;;6095534;23;20210;-85
2023/08/24 02:01:10;;;;;;;7.30;3.08;;;14.60;99.90;;;;;;6071543;23;20187;-88
2023/08/24 02:03:41;;;;;;;7.25;2.65;;;14.40;99.90;;;;;;6071980;23;20167;-87
2023/08/24 02:06:09;;;;;;;4.35;2.08;;;14.30;99.90;;;;;;6096234;23;20174;-86
2023/08/24 02:08:37;;;;;;;5.00;2.28;;;14.50;99.90;;;;;;6095729;23;20171;-88
2023/08/24 02:11:05;;;;;;;5.28;2.10;;;14.50;99.90;;;;;;6095583;23;20198;-86
2023/08/24 02:13:33;;;;;;;6.43;2.97;;;14.60;99.90;;;;;;6071869;23;20511;-87
2023/08/24 02:16:05;;;;;;;9.15;2.63;;;14.60;99.90;;;;;;6095923;23;20172;-87
2023/08/24 02:18:35;;;;;;;8.50;3.05;;;14.30;99.90;;;;;;6122058;23;20147;-87
2023/08/24 02:21:11;;;;;;;7.15;3.03;;;14.10;99.90;;;;;;6121471;23;20187;-88
2023/08/24 02:23:40;;;;;;;5.35;2.75;;;14.20;99.90;;;;;;6095423;23;20163;-87
2023/08/24 02:26:08;;;;;;;6.95;3.00;;;14.00;99.90;;;;;;6121519;23;20169;-88
2023/08/24 02:28:37;;;;;;;3.63;2.72;;;14.00;99.90;;;;;;6095554;23;20234;-87
2023/08/24 02:31:05;;;;;;;6.28;2.85;;;14.00;99.90;;;;;;6121567;23;20174;-89
2023/08/24 02:33:33;;;;;;;6.50;2.40;;;14.10;99.90;;;;;;6071925;23;20183;-87
2023/08/24 02:36:01;;;;;;;5.93;2.72;;;14.10;99.90;;;;;;6095330;23;20186;-88
2023/08/24 02:38:29;;;;;;;8.73;2.75;;;14.00;99.90;;;;;;6095509;23;20175;-86
2023/08/24 02:41:04;;;;;;;3.63;2.63;;;14.10;99.90;;;;;;6121542;23;20194;-88
2023/08/24 02:43:32;;;;;;;6.45;2.90;;;14.20;99.90;;;;;;6071863;23;20171;-88
2023/08/24 02:46:04;;;;;;;4.97;2.95;;;14.20;99.90;;;;;;6121343;23;20183;-88
2023/08/24 02:48:32;;;;;;;7.93;2.55;;;14.00;99.90;;;;;;6121646;23;20152;-86
2023/08/24 02:51:03;;;;;;;7.95;3.03;;;13.90;99.90;;;;;;6095990;23;20207;-87
2023/08/24 02:53:31;;;;;;;3.65;2.80;;;13.90;99.90;;;;;;6096346;23;20167;-87
2023/08/24 02:55:59;;;;;;;3.88;2.80;;;13.80;99.90;;;;;;6121813;23;20285;-87
2023/08/24 02:58:27;;;;;;;7.55;3.63;;;13.70;99.90;;;;;;6121535;23;20219;-87
2023/08/24 03:00:55;;;;;;;7.85;3.30;;;13.70;99.90;;;;;;6121796;23;20209;-86
2023/08/24 03:03:24;;;;;;;7.43;3.40;;;13.70;99.90;;;;;;6095994;23;20176;-86
2023/08/24 03:06:00;;;;;;;7.50;3.38;;;13.80;99.90;;;;;;6096540;23;20159;-86
2023/08/24 03:08:29;;;;;;;7.95;3.67;;;13.80;99.90;;;;;;6096166;23;20154;-86
2023/08/24 03:11:01;;;;;;;4.57;3.20;;;13.80;99.90;;;;;;6095176;23;20179;-86
2023/08/24 03:13:31;;;;;;;10.57;3.47;;;13.80;99.90;;;;;;6096184;23;20543;-86
2023/08/24 03:16:03;;;;;;;6.07;3.38;;;13.70;99.90;;;;;;6097242;23;20263;-85
2023/08/24 03:18:32;;;;;;;4.97;3.03;;;13.70;99.90;;;;;;6097293;23;20208;-85
2023/08/24 03:21:02;;;;;;;7.45;3.25;;;13.70;99.90;;;;;;6097414;23;20642;-86
2023/08/24 03:23:32;;;;;;;6.50;2.90;;;13.70;99.90;;;;;;6097286;23;20370;-84
2023/08/24 03:26:00;;;;;;;7.45;3.00;;;13.70;99.90;;;;;;6097112;23;20175;-86
2023/08/24 03:28:28;;;;;;;8.55;3.65;;;13.90;99.90;;;;;;6096901;23;20171;-85
2023/08/24 03:30:55;;;;;;;9.80;4.60;;;13.80;99.90;;;;;;6096650;23;20175;-85
2023/08/24 03:33:24;;;;;;;8.50;3.90;;;13.80;99.90;;;;;;6097022;23;20263;-85
2023/08/24 03:35:52;;;;;;;8.52;4.10;;;13.80;99.90;;;;;;6097373;23;20179;-86
2023/08/24 03:38:20;;;;;;;14.82;5.65;;;13.70;99.90;;;;;;6122469;23;20531;-87
2023/08/24 03:40:48;;;;;;;17.38;6.40;;;13.80;99.90;;;;;;6123365;23;20199;-85
2023/08/24 03:43:15;;;;;;;10.95;5.00;;;13.80;99.90;;;;;;6122769;23;20497;-86
2023/08/24 03:45:43;;;;;;;15.05;7.43;;;13.80;99.90;;;;;;6096528;23;20222;-86
2023/08/24 03:48:11;;;;;;;18.77;9.48;;;13.70;99.90;;;;;;6122834;23;20187;-85
2023/08/24 03:50:39;;;;;;;15.18;8.00;;;13.70;99.90;;;;;;6072888;23;20564;-86
2023/08/24 03:53:07;;;;;;;13.93;8.68;;;13.70;99.90;;;;;;6096508;23;20174;-85
2023/08/24 03:55:35;;;;;;;14.55;8.27;;;13.70;99.90;;;;;;6096975;23;20168;-85
2023/08/24 03:58:04;;;;;;;14.95;8.30;;;13.70;99.90;;;;;;6096352;23;20538;-86
2023/08/24 04:00:31;;;;;;;14.88;8.80;;;13.70;99.90;;;;;;6096278;23;20206;-86
2023/08/24 04:03:02;;;;;;;15.48;8.65;;;13.70;99.90;;;;;;6096695;23;20202;-85
2023/08/24 04:05:30;;;;;;;15.45;8.85;;;13.80;99.90;;;;;;6073485;23;20186;-84
2023/08/24 04:08:00;;;;;;;16.95;9.07;;;13.90;99.90;;;;;;6123032;23;20219;-87
2023/08/24 04:10:30;;;;;;;14.38;8.85;;;13.90;99.90;;;;;;6073055;23;20262;-85
2023/08/24 04:12:58;;;;;;;14.93;9.20;;;13.90;99.90;;;;;;6097107;23;20175;-84
2023/08/24 04:15:26;;;;;;;17.30;9.75;;;13.90;99.90;;;;;;6096388;23;20175;-87
2023/08/24 04:17:54;;;;;;;13.38;7.45;;;14.00;99.90;;;;;;6072408;23;20246;-87
2023/08/24 04:20:22;;;;;;;12.07;7.38;;;14.00;99.90;;;;;;6096206;23;20483;-85
2023/08/24 04:22:49;;;;;;;12.32;8.07;;;14.10;99.90;;;;;;6072855;23;20762;-85
2023/08/24 04:25:17;;;;;;;12.18;7.65;;;14.10;99.90;;;;;;6122123;23;20163;-86
2023/08/24 04:27:44;;;;;;;12.80;7.40;;;14.10;99.90;;;;;;6122639;23;20171;-86
2023/08/24 04:30:13;;;;;;;12.85;8.40;;;14.20;99.90;;;;;;6122679;23;20206;-86
2023/08/24 04:32:41;;;;;;;13.70;7.65;;;14.20;99.90;;;;;;6122326;23;20167;-83
2023/08/24 04:35:10;;;;;;;13.88;7.70;;;14.20;99.90;;;;;;6093403;23;20172;-85
2023/08/24 04:37:38;;;;;;;10.57;6.45;;;14.30;99.90;;;;;;6072390;23;20175;-85
2023/08/24 04:40:07;;;;;;;8.23;6.07;;;14.30;99.90;;;;;;6096418;23;20176;-85
2023/08/24 04:42:34;;;;;;;11.25;6.07;;;14.30;99.90;;;;;;6095789;23;20211;-83
2023/08/24 04:45:02;;;;;;;7.15;4.93;;;14.20;99.90;;;;;;6121611;23;20741;-85
2023/08/24 04:47:29;;;;;;;8.07;5.38;;;14.30;99.90;;;;;;6096258;23;20175;-84
2023/08/24 04:49:57;;;;;;;11.05;6.15;;;14.20;99.90;;;;;;6122414;23;20226;-83
2023/08/24 04:52:24;;;;;;;7.70;4.88;;;14.30;99.90;;;;;;6095943;23;20175;-84
2023/08/24 04:54:52;;;;;;;4.80;3.40;;;14.30;99.90;;;;;;6122240;23;20163;-86
2023/08/24 04:57:20;;;;;;;7.75;4.50;;;14.20;99.90;;;;;;6121687;23;20226;-85
2023/08/24 04:59:50;;;;;;;5.72;3.95;;;14.30;99.90;;;;;;6095860;23;20175;-87
2023/08/24 05:02:17;;;;;;;5.07;3.70;;;14.40;99.90;;;;;;6096097;23;20203;-84
2023/08/24 05:04:45;;;;;;;7.18;4.38;;;14.40;99.90;;;;;;6096235;23;20238;-85
2023/08/24 05:07:12;;;;;;;8.13;4.85;;;14.50;99.90;;;;;;6071971;23;20171;-85
2023/08/24 05:09:40;;;;;;;8.93;4.85;;;14.50;99.90;;;;;;6121515;23;20629;-85
2023/08/24 05:12:08;;;;;;;8.82;4.53;;;14.50;99.90;;;;;;6095403;23;20228;-85
2023/08/24 05:14:35;;;;;;;5.53;4.50;;;14.60;99.90;;;;;;6121417;23;20607;-84
2023/08/24 05:17:03;;;;;;;7.82;4.72;;;14.60;99.90;;;;;;6121619;23;20171;-84
2023/08/24 05:19:30;;;;;;;16.85;4.63;;;14.60;99.90;;;;;;6071588;23;20219;-84
2023/08/24 05:21:58;;;;;;;9.63;5.25;;;14.60;99.90;;;;;;6095687;23;20187;-85
2023/08/24 05:24:25;;;;;;;5.45;3.88;;;14.50;99.90;;;;;;6071752;23;20167;-84
2023/08/24 05:26:53;;;;;;;9.30;5.15;;;14.50;99.90;;;;;;6121055;23;20163;-85
2023/08/24 05:29:20;;;;;;;4.85;4.28;;;14.60;99.90;;;;;;6095603;23;20308;-84
2023/08/24 05:31:48;;;;;;;10.82;4.10;;;14.50;99.90;;;;;;6095432;23;20167;-84
2023/08/24 05:34:15;;;;;;;6.20;4.35;;;14.40;99.90;;;;;;6119116;23;20273;-85
2023/08/24 05:36:43;;;;;;;9.40;4.80;;;14.50;99.90;;;;;;6120860;23;20194;-85
2023/08/24 05:39:11;;;;;;;15.45;4.95;;;14.50;99.90;;;;;;6120935;23;20174;-83
2023/08/24 05:41:39;;;;;;;7.15;4.93;;;14.50;99.90;;;;;;6121840;23;20186;-84
2023/08/24 05:44:08;;;;;;;7.05;4.80;;;14.60;99.90;;;;;;6122644;23;20557;-85
2023/08/24 05:46:37;;;;;;;10.52;5.97;;;14.50;99.90;;;;;;6122188;23;20159;-82
2023/08/24 05:49:05;;;;;;;14.68;6.70;;;14.50;99.90;;;;;;6096414;23;20174;-84
2023/08/24 05:51:32;;;;;;;9.88;6.28;;;14.60;99.90;;;;;;6096414;23;20173;-85
2023/08/24 05:54:00;;;;;;;12.60;7.68;;;14.70;99.90;;;;;;6096295;23;20164;-86
2023/08/24 05:56:28;;;;;;;11.32;7.68;;;14.70;99.90;;;;;;6071929;23;20197;-84
2023/08/24 05:58:58;;;;;;;16.42;8.60;;;14.70;99.90;;;;;;6120231;23;20195;-85
2023/08/24 06:01:26;;;;;;;15.00;9.05;;;14.80;99.90;;;;;;6122168;23;20152;-86
2023/08/24 06:03:54;;;;;;;19.98;11.15;;;14.80;99.90;;;;;;6122142;23;20682;-86
2023/08/24 06:06:22;;;;;;;18.00;10.98;;;14.80;99.90;;;;;;6096648;23;20186;-85
2023/08/24 06:08:53;;;;;;;23.65;12.55;;;14.80;99.90;;;;;;6122666;23;20194;-82
2023/08/24 06:11:21;;;;;;;29.50;16.50;;;14.90;99.90;;;;;;6096124;23;20218;-85
2023/08/24 06:13:48;;;;;;;31.50;17.88;;;14.90;99.90;;;;;;6097161;23;21001;-85
2023/08/24 06:16:17;;;;;;;30.25;16.33;;;14.90;99.90;;;;;;6122807;23;20170;-84
2023/08/24 06:18:45;;;;;;;28.95;15.27;;;14.90;99.90;;;;;;6072445;23;20685;-86
2023/08/24 06:21:13;;;;;;;27.08;15.82;;;14.90;99.90;;;;;;6122915;23;20194;-85
2023/08/24 06:23:42;;;;;;;27.75;15.85;;;15.00;99.90;;;;;;6096720;23;20163;-85
2023/08/24 06:26:09;;;;;;;25.85;14.85;;;15.00;99.90;;;;;;6121723;23;20163;-85
2023/08/24 06:28:37;;;;;;;23.13;14.18;;;15.10;99.90;;;;;;6122021;23;20673;-85
2023/08/24 06:31:07;;;;;;;26.45;14.07;;;15.10;99.90;;;;;;6097218;23;20238;-83
2023/08/24 06:33:37;;;;;;;25.40;15.10;;;15.10;99.90;;;;;;6121552;23;20205;-83
2023/08/24 06:36:12;;;;;;;22.83;13.75;;;15.20;99.90;;;;;;6122508;23;20171;-84
2023/08/24 06:38:39;;;;;;;22.13;13.50;;;15.20;99.90;;;;;;6095106;23;20175;-84
2023/08/24 06:41:11;;;;;;;17.05;10.18;;;15.30;99.90;;;;;;6096078;23;20218;-82
2023/08/24 06:43:39;;;;;;;16.20;9.80;;;15.30;99.90;;;;;;6121649;23;20182;-84
2023/08/24 06:46:07;;;;;;;12.25;9.07;;;15.40;99.90;;;;;;6121820;23;20155;-84
2023/08/24 06:48:39;;;;;;;12.70;7.95;;;15.50;99.90;;;;;;6097469;23;20246;-84
2023/08/24 06:51:07;;;;;;;13.05;8.60;;;15.50;99.90;;;;;;6124189;23;20194;-85
2023/08/24 06:53:34;;;;;;;12.85;9.18;;;15.50;99.90;;;;;;6098231;23;20234;-85
2023/08/24 06:56:02;;;;;;;13.32;9.75;;;15.50;99.90;;;;;;6097989;23;20171;-85
2023/08/24 06:58:29;;;;;;;16.30;11.13;;;15.50;99.90;;;;;;6097447;23;20845;-84
2023/08/24 07:00:57;;;;;;;16.83;10.68;;;15.40;99.90;;;;;;6074058;23;20185;-83
2023/08/24 07:03:25;;;;;;;19.58;10.27;;;15.40;99.90;;;;;;6096551;23;20718;-84
2023/08/24 07:05:54;;;;;;;17.58;8.45;;;15.40;99.90;;;;;;6095852;23;20179;-84
2023/08/24 07:08:21;;;;;;;12.50;8.88;;;15.40;99.90;;;;;;6073559;23;20238;-84
2023/08/24 07:10:49;;;;;;;12.10;8.77;;;15.50;99.90;;;;;;6073946;23;20172;-83
2023/08/24 07:13:28;;;;;;;11.70;9.27;;;15.50;99.90;;;;;;6123723;23;20187;-85
2023/08/24 07:16:12;;;;;;;13.02;8.07;;;15.60;99.90;;;;;;6057424;23;20176;-84
2023/08/24 07:18:41;;;;;;;11.27;6.22;;;15.60;99.90;;;;;;6098828;23;20190;-84
2023/08/24 07:21:09;;;;;;;10.02;5.93;;;15.60;99.90;;;;;;6098654;23;20163;-85
2023/08/24 07:23:37;;;;;;;10.05;5.55;;;15.70;99.90;;;;;;6125991;23;20187;-84
2023/08/24 07:26:08;;;;;;;6.10;4.50;;;15.70;99.90;;;;;;6073765;23;20222;-85
2023/08/24 07:28:36;;;;;;;8.48;4.90;;;15.70;99.90;;;;;;6124285;23;20155;-84
2023/08/24 07:31:10;;;;;;;6.03;4.65;;;15.70;99.90;;;;;;6074435;23;20167;-84
2023/08/24 07:33:43;;;;;;;12.25;5.43;;;15.70;99.90;;;;;;6124323;23;20463;-85
2023/08/24 07:36:11;;;;;;;8.15;5.57;;;15.70;99.90;;;;;;6097180;23;20243;-85
2023/08/24 07:38:39;;;;;;;12.27;5.55;;;15.70;99.90;;;;;;6073524;23;20174;-84
2023/08/24 07:41:09;;;;;;;8.10;5.40;;;15.80;99.90;;;;;;6073491;23;20175;-84
2023/08/24 07:43:37;;;;;;;9.68;5.50;;;15.80;99.90;;;;;;6073782;23;20983;-85
2023/08/24 07:46:04;;;;;;;9.10;5.65;;;15.80;99.90;;;;;;6097004;23;20247;-83
2023/08/24 07:48:36;;;;;;;9.38;5.93;;;15.80;99.90;;;;;;6123026;23;20231;-85
2023/08/24 07:51:03;;;;;;;8.38;4.95;;;15.80;99.90;;;;;;6097334;23;20899;-85
2023/08/24 07:53:32;;;;;;;10.80;5.63;;;15.80;99.90;;;;;;6123099;23;20214;-85
2023/08/24 07:56:01;;;;;;;8.45;5.63;;;15.80;99.90;;;;;;6096598;23;20615;-85
2023/08/24 07:58:31;;;;;;;14.70;5.93;;;15.90;99.90;;;;;;6120968;23;20195;-84
2023/08/24 08:01:00;;;;;;;12.07;5.63;;;15.90;99.90;;;;;;6098352;23;20164;-85
2023/08/24 08:03:28;;;;;;;11.13;5.57;;;15.90;99.90;;;;;;6096270;23;20191;-86
2023/08/24 08:05:55;;;;;;;10.10;6.45;;;16.00;99.90;;;;;;6097578;23;20602;-85
2023/08/24 08:08:23;;;;;;;9.45;6.55;;;15.90;99.90;;;;;;6096620;23;20443;-85
2023/08/24 08:10:59;;;;;;;9.23;6.40;;;15.90;99.90;;;;;;6097367;23;20183;-84
2023/08/24 08:13:30;;;;;;;15.48;6.63;;;15.90;99.90;;;;;;6096818;23;20159;-85
2023/08/24 08:16:03;;;;;;;11.57;6.63;;;15.90;99.90;;;;;;6122687;23;20158;-85
2023/08/24 08:18:32;;;;;;;8.10;6.22;;;15.90;99.90;;;;;;6072864;23;20761;-83
2023/08/24 08:21:00;;;;;;;8.63;6.07;;;15.90;99.90;;;;;;6122783;23;20167;-85
2023/08/24 08:23:28;;;;;;;8.77;6.10;;;16.00;99.90;;;;;;6122590;23;20242;-86
2023/08/24 08:25:56;;;;;;;11.32;6.35;;;16.00;99.90;;;;;;6096130;23;20228;-85
2023/08/24 08:28:23;;;;;;;7.18;5.97;;;16.10;99.90;;;;;;6095974;23;20897;-86
2023/08/24 08:30:51;;;;;;;18.00;6.30;;;16.10;99.90;;;;;;6097230;23;20163;-85
2023/08/24 08:33:21;;;;;;;13.38;7.43;;;16.20;99.90;;;;;;6095445;23;20263;-86
2023/08/24 08:35:49;;;;;;;11.25;6.20;;;16.30;99.90;;;;;;6095636;23;20176;-85
2023/08/24 08:38:16;;;;;;;10.80;7.35;;;16.30;99.90;;;;;;6095690;23;20168;-85
2023/08/24 08:40:46;;;;;;;11.93;7.63;;;16.40;99.90;;;;;;6095682;23;20191;-84
2023/08/24 08:43:13;;;;;;;11.65;7.07;;;16.40;99.90;;;;;;6071692;23;20604;-85
2023/08/24 08:45:41;;;;;;;14.18;8.15;;;16.40;99.90;;;;;;6095945;23;20165;-84
2023/08/24 08:48:10;;;;;;;12.10;7.10;;;16.40;99.90;;;;;;6072749;23;20167;-84
2023/08/24 08:50:38;;;;;;;9.68;6.72;;;16.50;99.90;;;;;;6072984;23;20172;-85
2023/08/24 08:53:05;;;;;;;13.30;6.60;;;16.60;99.90;;;;;;6122735;23;20821;-85
2023/08/24 08:55:33;;;;;;;9.82;6.47;;;16.60;99.90;;;;;;6072644;23;20714;-85
2023/08/24 08:58:03;;;;;;;10.10;6.18;;;16.60;99.90;;;;;;6072320;23;20203;-85
2023/08/24 09:00:32;;;;;;;10.63;6.68;;;16.70;99.90;;;;;;6096279;23;20175;-83
2023/08/24 09:03:01;;;;;;;13.07;7.45;;;16.60;99.90;;;;;;6097049;23;20187;-85
2023/08/24 09:05:31;;;;;;;10.27;6.05;;;16.60;99.90;;;;;;6073965;23;20167;-87
2023/08/24 09:08:02;;;;;;;9.30;5.75;;;16.40;99.90;;;;;;6097712;23;20179;-87
2023/08/24 09:10:31;;;;;;;10.25;6.78;;;16.50;99.90;;;;;;6123016;23;20175;-81
2023/08/24 09:12:59;;;;;;;11.05;6.07;;;16.50;99.90;;;;;;6123068;23;20187;-84
2023/08/24 09:15:36;;;;;;;11.23;5.93;;;16.50;99.90;;;;;;6096408;23;20282;-83
2023/08/24 09:18:10;;;;;;;11.40;6.72;;;16.50;99.90;;;;;;6123054;23;20155;-82
2023/08/24 09:20:41;;;;;;;9.10;6.93;;;16.50;99.90;;;;;;6122750;23;20155;-85
2023/08/24 09:23:20;;;;;;;11.43;7.10;;;16.50;99.90;;;;;;6122059;23;20623;-83
2023/08/24 09:25:49;;;;;;;10.10;6.40;;;16.50;99.90;;;;;;6096706;23;20154;-83
2023/08/24 09:28:24;;;;;;;10.27;7.10;;;16.50;99.90;;;;;;6098195;23;20175;-84
2023/08/24 09:30:56;;;;;;;10.13;6.60;;;16.40;99.90;;;;;;6122523;23;20151;-81
2023/08/24 09:33:36;;;;;;;9.80;6.65;;;16.50;99.90;;;;;;6094184;23;20670;-84
2023/08/24 09:36:07;;;;;;;12.25;7.03;;;16.50;99.90;;;;;;6096403;23;20663;-84
2023/08/24 09:38:39;;;;;;;8.95;6.57;;;16.50;99.90;;;;;;6096997;23;20194;-83
2023/08/24 09:41:14;;;;;;;9.93;6.82;;;16.50;99.90;;;;;;6122260;23;20183;-84
2023/08/24 09:43:43;;;;;;;10.23;6.60;;;16.50;99.90;;;;;;6122987;23;20183;-84
2023/08/24 09:46:21;;;;;;;10.80;6.10;;;16.40;99.90;;;;;;6122521;23;20144;-85
2023/08/24 09:48:57;;;;;;;8.63;6.43;;;16.40;99.90;;;;;;6096418;23;20159;-87
2023/08/24 09:51:30;;;;;;;10.35;6.72;;;16.50;99.90;;;;;;6073458;23;20163;-84
2023/08/24 09:54:13;;;;;;;10.18;7.65;;;16.60;99.90;;;;;;6121950;23;20178;-80
2023/08/24 09:56:50;;;;;;;11.63;6.93;;;16.60;99.90;;;;;;6094812;23;20206;-83
2023/08/24 09:59:27;;;;;;;7.70;6.32;;;16.70;99.90;;;;;;6096894;23;20147;-82
2023/08/24 10:02:00;;;;;;;8.85;6.30;;;16.70;99.90;;;;;;6096305;23;20163;-85
2023/08/24 10:04:42;;;;;;;8.95;6.10;;;16.80;99.90;;;;;;6096726;23;20187;-84
2023/08/24 10:07:31;;;;;;;9.00;6.13;;;16.70;99.90;;;;;;6117623;23;20167;-84
2023/08/24 10:10:08;;;;;;;10.07;5.97;;;16.80;99.90;;;;;;6072415;23;20167;-83
2023/08/24 10:12:41;;;;;;;9.30;6.50;;;16.90;99.90;;;;;;6121524;23;20155;-84
2023/08/24 10:15:11;;;;;;;8.40;6.00;;;17.10;99.90;;;;;;6096105;23;20206;-83
2023/08/24 10:17:40;;;;;;;11.07;6.40;;;17.10;99.90;;;;;;6096025;23;20164;-83
2023/08/24 10:20:20;;;;;;;8.60;6.40;;;17.10;99.90;;;;;;6121577;23;20177;-81
2023/08/24 10:22:52;;;;;;;8.00;5.45;;;17.10;99.90;;;;;;6096668;23;20181;-85
2023/08/24 10:25:23;;;;;;;11.90;6.43;;;17.20;99.90;;;;;;6071360;23;20171;-83
2023/08/24 10:27:53;;;;;;;7.43;6.40;;;17.30;99.90;;;;;;6095943;23;20163;-83
2023/08/24 10:30:22;;;;;;;10.35;6.43;;;17.40;99.90;;;;;;6121838;23;20226;-83
2023/08/24 10:32:53;;;;;;;9.13;5.93;;;17.40;99.90;;;;;;6070223;23;20835;-83
2023/08/24 10:35:23;;;;;;;9.10;5.10;;;17.50;99.90;;;;;;6121878;23;20152;-84
2023/08/24 10:37:53;;;;;;;7.05;5.88;;;17.50;99.90;;;;;;6097302;23;20238;-84
2023/08/24 10:40:32;;;;;;;8.75;6.18;;;17.50;99.90;;;;;;6122517;23;20175;-86
2023/08/24 10:43:05;;;;;;;9.38;5.78;;;17.60;99.90;;;;;;6095212;23;20187;-82
2023/08/24 10:45:59;;;;;;;7.88;5.47;;;17.80;99.90;;;;;;6094804;23;20202;-85
2023/08/24 10:48:51;;;;;;;7.57;6.30;;;17.80;99.90;;;;;;6121147;23;20188;-84
2023/08/24 10:51:23;;;;;;;7.28;6.40;;;17.80;99.90;;;;;;6071352;23;20171;-83
2023/08/24 10:53:56;;;;;;;8.07;5.75;;;17.80;99.90;;;;;;6071836;23;20163;-82
2023/08/24 10:56:38;;;;;;;7.68;5.82;;;17.70;99.90;;;;;;6095763;23;20163;-84
2023/08/24 10:59:16;;;;;;;7.30;4.90;;;17.60;99.90;;;;;;6093080;23;20218;-82
2023/08/24 11:01:56;;;;;;;7.72;4.90;;;17.40;99.90;;;;;;6068236;23;20187;-82
2023/08/24 11:04:27;;;;;;;7.72;4.80;;;17.30;99.90;;;;;;6068574;23;20196;-84
2023/08/24 11:07:03;;;;;;;5.70;4.03;;;17.30;99.90;;;;;;6068563;23;20664;-84
2023/08/24 11:09:47;;;;;;;7.85;4.43;;;17.20;99.90;;;;;;6069024;23;20148;-82
2023/08/24 11:12:19;;;;;;;6.07;3.90;;;17.20;99.90;;;;;;6093729;23;20148;-83
2023/08/24 11:15:00;;;;;;;6.55;4.55;;;17.20;99.90;;;;;;6092485;23;20943;-86
2023/08/24 11:17:32;;;;;;;6.60;4.53;;;17.20;99.90;;;;;;6088881;23;20227;-81
2023/08/24 11:20:01;;;;;;;9.23;4.28;;;17.20;99.90;;;;;;6091836;23;20171;-85
2023/08/24 11:22:32;;;;;;;7.07;3.80;;;17.20;99.90;;;;;;6066863;23;20498;-86
2023/08/24 11:25:00;;;;;;;6.40;3.95;;;17.20;99.90;;;;;;6065752;23;20499;-83
2023/08/24 11:27:30;;;;;;;7.85;4.05;;;17.20;99.90;;;;;;6093077;23;20164;-84
2023/08/24 11:30:01;;;;;;;6.22;4.65;;;17.10;99.90;;;;;;6093040;23;20148;-84
2023/08/24 11:32:31;;;;;;;6.25;3.33;;;17.10;99.90;;;;;;6068041;23;20174;-83
2023/08/24 11:35:05;;;;;;;6.00;3.78;;;17.10;99.90;;;;;;6094487;23;20148;-84
2023/08/24 11:37:33;;;;;;;6.57;3.90;;;17.10;99.90;;;;;;6094776;23;20239;-85
2023/08/24 11:40:04;;;;;;;6.75;3.40;;;17.00;99.90;;;;;;6094717;23;20164;-85
2023/08/24 11:42:36;;;;;;;5.75;4.15;;;17.00;99.90;;;;;;6093087;23;20413;-85
2023/08/24 11:45:12;;;;;;;7.95;4.15;;;17.10;99.90;;;;;;6089482;23;20160;-85
2023/08/24 11:47:41;;;;;;;5.88;3.97;;;17.10;99.90;;;;;;6091629;23;20144;-84
2023/08/24 11:50:09;;;;;;;6.40;4.28;;;16.90;99.90;;;;;;6066515;23;20160;-84
2023/08/24 11:52:42;;;;;;;7.20;4.78;;;16.90;99.90;;;;;;6066179;23;20222;-84
2023/08/24 11:55:12;;;;;;;6.50;4.47;;;16.90;99.90;;;;;;6065954;23;20156;-86
2023/08/24 11:57:39;;;;;;;8.13;4.60;;;17.00;99.90;;;;;;6104613;23;20207;-85
2023/08/24 12:00:09;;;;;;;8.30;4.57;;;17.00;99.90;;;;;;6095613;23;20475;-83
2023/08/24 12:02:37;;;;;;;8.82;4.57;;;17.10;99.90;;;;;;6121778;23;20184;-83
2023/08/24 12:05:19;;;;;;;6.68;4.80;;;17.10;99.90;;;;;;6097781;23;20191;-83
2023/08/24 12:07:47;;;;;;;5.40;4.28;;;17.10;99.90;;;;;;6095224;23;20156;-84
2023/08/24 12:10:16;;;;;;;7.80;5.38;;;17.20;99.90;;;;;;6095355;23;20160;-81
2023/08/24 12:12:44;;;;;;;8.40;5.93;;;17.30;99.90;;;;;;6095018;23;20174;-84
2023/08/24 12:15:22;;;;;;;8.25;4.93;;;17.20;99.90;;;;;;6120513;23;20168;-84
2023/08/24 12:17:49;;;;;;;7.93;5.78;;;17.30;99.90;;;;;;6120178;23;20155;-87
2023/08/24 12:20:21;;;;;;;8.02;5.07;;;17.50;99.90;;;;;;6120080;23;20167;-85
2023/08/24 12:22:53;;;;;;;9.43;5.55;;;17.70;99.90;;;;;;6120576;23;20155;-85
2023/08/24 12:25:25;;;;;;;6.97;4.75;;;18.00;99.90;;;;;;6120332;23;20164;-83
2023/08/24 12:28:13;;;;;;;6.57;4.72;;;18.30;99.90;;;;;;6120385;23;20257;-82
2023/08/24 12:31:03;;;;;;;7.88;4.75;;;18.80;99.90;;;;;;6120406;23;20199;-83
2023/08/24 12:33:32;;;;;;;6.55;3.88;;;19.10;99.90;;;;;;6094723;23;20175;-82
2023/08/24 12:36:02;;;;;;;6.40;4.00;;;18.70;99.90;;;;;;6094613;23;20190;-82
2023/08/24 12:38:30;;;;;;;6.03;3.80;;;18.70;99.90;;;;;;6120437;23;20174;-83
2023/08/24 12:40:58;;;;;;;6.80;3.70;;;18.70;99.90;;;;;;6094716;23;20171;-84
2023/08/24 12:43:26;;;;;;;4.78;3.10;;;19.00;99.90;;;;;;6120925;23;20190;-83
2023/08/24 12:45:54;;;;;;;5.60;3.28;;;19.20;99.90;;;;;;6120483;23;20156;-83
2023/08/24 12:48:23;;;;;;;5.82;3.10;;;19.40;99.90;;;;;;6120816;23;20258;-82
2023/08/24 12:50:51;;;;;;;5.80;3.50;;;19.40;99.90;;;;;;6121064;23;20186;-83
2023/08/24 12:53:20;;;;;;;7.60;3.38;;;19.30;99.90;;;;;;6094326;23;20195;-84
2023/08/24 12:55:48;;;;;;;3.72;2.42;;;19.40;99.90;;;;;;6093614;23;20175;-84
2023/08/24 12:58:18;;;;;;;4.38;2.97;;;19.10;99.90;;;;;;6092501;23;20206;-84